Flight Track Log - Related Links

Times and Time Zones

All times are in EDT time to prevent confusion due to time zone crossing. See the CPT8773 flight status page for this flight to view local times or setup timezone preferences in your user account.

Time Position Orientation Groundspeed Altitude Reporting Facility
EDT Latitude Longitude Course Direction KTS MPH feet Rate Location/Type
Tue 09:09:13 AM 42.9631 -106.5200 307° West 116 133 7,100  Level Denver Center
Tue 09:10:14 AM 42.9975 -106.5344 343° North 116 133 7,700 492 Climbing Denver Center
Tue 09:11:15 AM 43.0297 -106.5458 346° North 123 142 8,100 492 Climbing Denver Center
Tue 09:12:16 AM 43.0639 -106.5556 348° North 127 146 8,700 541 Climbing Denver Center
Tue 09:13:00 AM 43.1516 -106.3880 295° West  Level FlightAware Approximate
Tue 09:13:17 AM 43.1003 -106.5675 347° North 125 144 9,200  Level Denver Center
Tue 09:14:00 AM 43.1703 -106.4399 307° West  Level FlightAware Approximate
Tue 09:14:18 AM 43.1275 -106.5822 338° Northwest 119 137 9,500  Level Denver Center
Tue 09:15:19 AM 43.1667 -106.5989 343° North 129 148 10,000 439 Climbing Denver Center
Tue 09:16:21 AM 43.1997 -106.6128 343° North 131 151 10,400 390 Climbing Denver Center
Tue 09:17:22 AM 43.2317 -106.6258 343° North 130 150 10,800 393 Climbing Denver Center
Tue 09:18:23 AM 43.2708 -106.6461 339° North 130 150 11,200 393 Climbing Denver Center
Tue 09:19:24 AM 43.3003 -106.6686 331° Northwest 127 146 11,600 393 Climbing Denver Center
Tue 09:20:25 AM 43.3181 -106.7078 302° West 124 143 12,000 197 Climbing Denver Center
Tue 09:21:26 AM 43.3442 -106.7544 308° West 136 157 12,000  Level Denver Center
Tue 09:22:28 AM 43.3683 -106.7961 309° West 144 166 12,000  Level Denver Center
Tue 09:23:29 AM 43.3950 -106.8489 305° West 149 171 12,000  Level Denver Center
Tue 09:24:28 AM 43.4175 -106.8953 304° West 150 173 12,000  Level Salt Lake Center
Tue 09:25:29 AM 43.4386 -106.9383 304° West 148 170 12,000 -49 Level Salt Lake Center
Tue 09:26:30 AM 43.4650 -106.9933 303° West 151 174 11,900 -49 Descending Salt Lake Center
Tue 09:27:31 AM 43.4894 -107.0375 307° West 152 175 11,900  Level Salt Lake Center
Tue 09:28:32 AM 43.5136 -107.0817 307° West 152 175 11,900  Level Salt Lake Center
Tue 09:29:33 AM 43.5400 -107.1356 304° West 151 174 11,900  Level Salt Lake Center
Tue 09:30:34 AM 43.5656 -107.1797 309° West 153 176 11,900  Level Salt Lake Center
Tue 09:31:35 AM 43.5903 -107.2242 308° West 152 175 11,900  Level Salt Lake Center
Tue 09:32:36 AM 43.6181 -107.2775 306° West 152 175 11,900  Level Salt Lake Center
Tue 09:33:37 AM 43.6422 -107.3228 306° West 152 175 11,900  Level Salt Lake Center
Tue 09:34:39 AM 43.6653 -107.3681 305° West 151 174 11,900  Level Salt Lake Center
Tue 09:35:40 AM 43.6922 -107.4208 305° West 150 173 11,900  Level Salt Lake Center
Tue 09:36:41 AM 43.7167 -107.4669 306° West 153 176 11,900  Level Salt Lake Center
Tue 09:37:42 AM 43.7453 -107.5181 308° West 152 175 11,900  Level Salt Lake Center
Tue 09:38:44 AM 43.7692 -107.5636 306° West 152 175 11,900  Level Salt Lake Center
Tue 09:39:45 AM 43.7928 -107.6083 306° West 150 173 11,900  Level Salt Lake Center
Tue 09:40:46 AM 43.8200 -107.6603 306° West 149 171 11,900  Level Salt Lake Center
Tue 09:41:47 AM 43.8442 -107.7069 306° West 153 176 11,900  Level Salt Lake Center
Tue 09:42:49 AM 43.8722 -107.7589 307° West 152 175 11,900  Level Salt Lake Center
Tue 09:43:50 AM 43.8956 -107.8033 306° West 149 171 11,900  Level Salt Lake Center
Tue 09:44:52 AM 43.9200 -107.8497 306° West 152 175 11,900  Level Salt Lake Center
Tue 09:45:53 AM 43.9461 -107.9014 305° West 148 170 11,900  Level Salt Lake Center
Tue 09:46:54 AM 43.9700 -107.9481 305° West 151 174 11,900  Level Salt Lake Center
Tue 09:47:56 AM 43.9942 -107.9919 307° West 150 173 11,900 49 Level Salt Lake Center
Tue 09:48:57 AM 44.0217 -108.0458 305° West 151 174 12,000 49 Climbing Salt Lake Center
Tue 09:49:58 AM 44.0456 -108.0914 306° West 152 175 12,000  Level Salt Lake Center
Tue 09:51:00 AM 44.0725 -108.1442 305° West 151 174 12,000  Level Salt Lake Center
Tue 09:52:01 AM 44.0964 -108.1903 306° West 152 175 12,000  Level Salt Lake Center
Tue 09:53:03 AM 44.1197 -108.2378 304° West 153 176 12,000  Level Salt Lake Center
Tue 09:54:04 AM 44.1489 -108.2911 307° West 154 177 12,000  Level Salt Lake Center
Tue 09:55:06 AM 44.1725 -108.3381 305° West 155 178 12,000  Level Salt Lake Center
Tue 09:56:07 AM 44.2006 -108.3936 305° West 156 180 12,000 -49 Level Salt Lake Center
Tue 09:57:09 AM 44.2250 -108.4397 307° West 155 178 11,900 -195 Descending Salt Lake Center
Tue 09:58:10 AM 44.2492 -108.4889 304° West 156 180 11,600 -390 Descending Salt Lake Center
Tue 09:59:12 AM 44.2811 -108.5492 307° West 164 189 11,100 -390 Descending Salt Lake Center
Tue 10:00:13 AM 44.3086 -108.6025 306° West 170 196 10,800 -341 Descending Salt Lake Center
Tue 10:01:15 AM 44.3392 -108.6639 305° West 172 198 10,400 -387 Descending Salt Lake Center

Login

Don't have an account? Register now (free) for customized features, flight alerts, and more!